Time;durP1;ratioP1;P1;durP2;ratioP2;P2;SDS_P1;SDS_P2;PMS_P1;PMS_P2;Temp;Humidity;BMP_temperature;BMP_pressure;BME280_temperature;BME280_humidity;BME280_pressure;Samples;Min_cycle;Max_cycle;Signal;HPM_P1;HPM_P2
2023/05/26 00:01:58;;;;;;;16.93;5.17;;;9.10;99.90;;;;;;5015522;28;20231;-78
2023/05/26 00:04:25;;;;;;;26.27;5.80;;;9.00;99.90;;;;;;5022114;28;20640;-80
2023/05/26 00:06:54;;;;;;;19.20;4.90;;;8.90;99.90;;;;;;5021621;28;20251;-78
2023/05/26 00:09:21;;;;;;;19.50;5.13;;;8.90;99.90;;;;;;5019621;28;20279;-78
2023/05/26 00:11:49;;;;;;;19.30;5.27;;;8.90;99.90;;;;;;5020883;28;20239;-78
2023/05/26 00:14:16;;;;;;;17.67;4.53;;;8.80;99.90;;;;;;5020108;28;20228;-78
2023/05/26 00:16:43;;;;;;;17.70;5.13;;;8.80;99.90;;;;;;5018962;28;20299;-78
2023/05/26 00:19:12;;;;;;;22.93;5.30;;;8.70;99.90;;;;;;5018251;28;20242;-78
2023/05/26 00:21:39;;;;;;;19.87;4.87;;;8.70;99.90;;;;;;5017948;28;20228;-78
2023/05/26 00:24:07;;;;;;;18.10;4.50;;;8.60;99.90;;;;;;5021877;28;20229;-78
2023/05/26 00:26:33;;;;;;;16.50;5.33;;;8.60;99.90;;;;;;5022682;28;20244;-78
2023/05/26 00:29:02;;;;;;;16.37;5.00;;;8.50;99.90;;;;;;5033293;28;20221;-78
2023/05/26 00:31:30;;;;;;;19.80;5.30;;;8.50;99.90;;;;;;5020481;28;20239;-78
2023/05/26 00:33:58;;;;;;;26.70;5.70;;;8.40;99.90;;;;;;5036807;28;20254;-79
2023/05/26 00:36:24;;;;;;;21.83;4.77;;;8.40;99.90;;;;;;5020920;28;20242;-79
2023/05/26 00:38:51;;;;;;;20.00;4.97;;;8.30;99.90;;;;;;5020140;28;20327;-79
2023/05/26 00:41:19;;;;;;;22.17;5.57;;;8.30;99.90;;;;;;5014693;28;20216;-79
2023/05/26 00:43:46;;;;;;;23.23;5.90;;;8.20;99.90;;;;;;5018208;28;20233;-79
2023/05/26 00:46:14;;;;;;;20.30;5.27;;;8.20;99.90;;;;;;5015663;28;20286;-78
2023/05/26 00:48:41;;;;;;;20.20;4.97;;;8.10;99.90;;;;;;5016943;28;20232;-78
2023/05/26 00:51:08;;;;;;;17.47;4.83;;;8.10;99.90;;;;;;5017058;28;20216;-78
2023/05/26 00:53:38;;;;;;;17.37;4.60;;;8.00;99.90;;;;;;5018285;28;20231;-79
2023/05/26 00:56:07;;;;;;;20.87;4.93;;;8.00;99.90;;;;;;5031303;28;20220;-79
2023/05/26 00:58:34;;;;;;;21.37;5.50;;;8.00;99.90;;;;;;5016167;28;20230;-79
2023/05/26 01:01:01;;;;;;;19.27;4.87;;;7.90;99.90;;;;;;5019436;28;20264;-79
2023/05/26 01:03:30;;;;;;;18.00;4.97;;;7.90;99.90;;;;;;5031917;28;20235;-78
2023/05/26 01:05:56;;;;;;;21.10;5.37;;;7.90;99.90;;;;;;5015585;28;20230;-78
2023/05/26 01:08:23;;;;;;;18.43;4.80;;;7.80;99.90;;;;;;5042988;23;20540;-76
2023/05/26 01:10:53;;;;;;;17.53;5.37;;;7.80;99.90;;;;;;5020496;28;20229;-76
2023/05/26 01:13:25;;;;;;;21.83;5.20;;;7.70;99.90;;;;;;5019473;28;20434;-77
2023/05/26 01:15:55;;;;;;;19.50;6.03;;;7.70;99.90;;;;;;5021449;28;20318;-77
2023/05/26 01:18:28;;;;;;;22.47;5.07;;;7.70;99.90;;;;;;5036823;28;20440;-77
2023/05/26 01:21:01;;;;;;;22.43;5.50;;;7.60;99.90;;;;;;5031697;28;20797;-76
2023/05/26 01:23:39;;;;;;;14.17;4.57;;;7.60;99.90;;;;;;5027135;28;20218;-76
2023/05/26 01:26:22;;;;;;;17.77;5.57;;;7.50;99.90;;;;;;5028957;28;20767;-76
2023/05/26 01:28:53;;;;;;;22.57;5.33;;;7.50;99.90;;;;;;5031202;28;20357;-76
2023/05/26 01:31:20;;;;;;;18.20;5.33;;;7.40;99.90;;;;;;5033099;28;20226;-76
2023/05/26 01:33:47;;;;;;;20.03;5.37;;;7.40;99.90;;;;;;5032601;28;20226;-76
2023/05/26 01:36:14;;;;;;;22.80;5.67;;;7.40;99.90;;;;;;5038283;28;20269;-76
2023/05/26 01:38:41;;;;;;;18.57;5.00;;;7.30;99.90;;;;;;5029047;28;20733;-76
2023/05/26 01:41:16;;;;;;;21.10;5.37;;;7.30;99.90;;;;;;5029608;28;20227;-76
2023/05/26 01:43:46;;;;;;;21.10;4.93;;;7.20;99.90;;;;;;5035934;28;20697;-76
2023/05/26 01:46:22;;;;;;;21.73;5.50;;;7.20;99.90;;;;;;5032131;28;20824;-75
2023/05/26 01:48:52;;;;;;;21.57;5.87;;;7.20;99.90;;;;;;5034620;28;20233;-76
2023/05/26 01:51:22;;;;;;;28.40;5.33;;;7.10;99.90;;;;;;5036350;28;20227;-76
2023/05/26 01:53:52;;;;;;;19.50;5.13;;;7.10;99.90;;;;;;5026322;28;20991;-76
2023/05/26 01:56:20;;;;;;;19.43;5.37;;;7.00;99.90;;;;;;5033855;28;20740;-76
2023/05/26 01:58:49;;;;;;;18.63;5.10;;;7.00;99.90;;;;;;5035669;28;20222;-77
2023/05/26 02:01:17;;;;;;;20.53;4.77;;;7.00;99.90;;;;;;5036784;28;20223;-76
2023/05/26 02:03:44;;;;;;;19.13;4.83;;;6.90;99.90;;;;;;5033299;28;20260;-77
2023/05/26 02:06:10;;;;;;;20.37;5.30;;;6.90;99.90;;;;;;5037288;28;20912;-77
2023/05/26 02:08:38;;;;;;;22.27;6.17;;;6.80;99.90;;;;;;5038381;28;20219;-77
2023/05/26 02:11:05;;;;;;;25.80;5.03;;;6.80;99.90;;;;;;5034985;28;20593;-77
2023/05/26 02:13:32;;;;;;;20.33;4.83;;;6.80;99.90;;;;;;5033103;28;20227;-77
2023/05/26 02:15:59;;;;;;;19.67;5.37;;;6.70;99.90;;;;;;5037954;28;20227;-77
2023/05/26 02:18:28;;;;;;;21.27;5.07;;;6.60;99.90;;;;;;5031509;28;20640;-77
2023/05/26 02:20:55;;;;;;;17.83;5.03;;;6.70;99.90;;;;;;5032662;28;20240;-76
2023/05/26 02:23:22;;;;;;;20.07;5.70;;;6.60;99.90;;;;;;5030629;28;20219;-76
2023/05/26 02:25:48;;;;;;;21.37;5.20;;;6.60;99.90;;;;;;5031675;28;20239;-77
2023/05/26 02:28:15;;;;;;;22.50;5.17;;;6.60;99.90;;;;;;5028109;28;20219;-77
2023/05/26 02:30:42;;;;;;;21.60;4.73;;;6.50;99.90;;;;;;5031617;28;20223;-76
2023/05/26 02:33:10;;;;;;;20.20;5.10;;;6.50;99.90;;;;;;5037578;28;20227;-77
2023/05/26 02:35:38;;;;;;;21.57;5.27;;;6.50;99.90;;;;;;5039607;28;20238;-77
2023/05/26 02:38:05;;;;;;;23.80;5.67;;;6.40;99.90;;;;;;5035749;28;20233;-77
2023/05/26 02:40:33;;;;;;;18.67;6.03;;;6.40;99.90;;;;;;5037872;28;20319;-77
2023/05/26 02:43:00;;;;;;;16.97;4.93;;;6.40;99.90;;;;;;5042033;28;20223;-77
2023/05/26 02:45:27;;;;;;;21.10;5.13;;;6.30;99.90;;;;;;5037003;28;20302;-77
2023/05/26 02:47:54;;;;;;;19.27;5.17;;;6.30;99.90;;;;;;5040450;28;20273;-77
2023/05/26 02:50:22;;;;;;;25.93;5.13;;;6.30;99.90;;;;;;5039372;28;20235;-77
2023/05/26 02:52:50;;;;;;;25.67;5.60;;;6.20;99.90;;;;;;5040600;28;20219;-77
2023/05/26 02:55:17;;;;;;;23.33;5.07;;;6.20;99.90;;;;;;5037548;28;20337;-76
2023/05/26 02:57:43;;;;;;;21.27;5.07;;;6.20;99.90;;;;;;5038289;28;20222;-77
2023/05/26 03:00:12;;;;;;;20.47;5.13;;;6.10;99.90;;;;;;5038453;28;20227;-77
2023/05/26 03:02:39;;;;;;;30.33;5.90;;;6.10;99.90;;;;;;5039804;28;20239;-76
2023/05/26 03:05:07;;;;;;;27.93;6.10;;;6.10;99.90;;;;;;5040806;28;20323;-76
2023/05/26 03:07:34;;;;;;;25.80;6.17;;;6.10;99.90;;;;;;5035353;28;20231;-76
2023/05/26 03:10:03;;;;;;;21.80;5.80;;;6.00;99.90;;;;;;5037648;28;20215;-76
2023/05/26 03:12:30;;;;;;;20.63;5.80;;;6.00;99.90;;;;;;5032739;28;20403;-77
2023/05/26 03:14:58;;;;;;;24.97;5.83;;;6.00;99.90;;;;;;5043192;28;20526;-77
2023/05/26 03:17:25;;;;;;;20.50;4.60;;;5.90;99.90;;;;;;5028990;28;20333;-78
2023/05/26 03:19:52;;;;;;;24.07;5.37;;;5.90;99.90;;;;;;5038978;28;20817;-77
2023/05/26 03:22:19;;;;;;;24.33;5.33;;;5.90;99.90;;;;;;5031583;28;20228;-77
2023/05/26 03:24:46;;;;;;;19.07;5.07;;;5.90;99.90;;;;;;5036021;28;20238;-77
2023/05/26 03:27:16;;;;;;;20.70;5.30;;;5.90;99.90;;;;;;5034452;28;20223;-76
2023/05/26 03:29:43;;;;;;;20.83;5.00;;;5.90;99.90;;;;;;5034025;28;20231;-76
2023/05/26 03:32:11;;;;;;;24.90;5.73;;;5.80;99.90;;;;;;5036611;28;20211;-76
2023/05/26 03:34:39;;;;;;;22.37;5.07;;;5.90;99.90;;;;;;5038681;28;20325;-77
2023/05/26 03:37:06;;;;;;;17.70;4.87;;;5.80;99.90;;;;;;5040321;28;20729;-76
2023/05/26 03:39:34;;;;;;;23.87;5.47;;;5.90;99.90;;;;;;5035918;28;21010;-77
2023/05/26 03:42:01;;;;;;;19.60;5.33;;;5.80;99.90;;;;;;5033165;28;20218;-76
2023/05/26 03:44:33;;;;;;;24.50;5.10;;;5.80;99.90;;;;;;5035237;28;20231;-77
2023/05/26 03:47:00;;;;;;;20.73;5.47;;;5.90;99.90;;;;;;5040654;28;20946;-77
2023/05/26 03:49:27;;;;;;;25.10;6.37;;;5.80;99.90;;;;;;5039822;28;20265;-77
2023/05/26 03:51:55;;;;;;;25.07;5.67;;;5.80;99.90;;;;;;5040716;28;20681;-76
2023/05/26 03:54:22;;;;;;;21.17;5.03;;;5.80;99.90;;;;;;5038151;28;20222;-76
2023/05/26 03:56:49;;;;;;;22.93;5.90;;;5.90;99.90;;;;;;5036827;28;20937;-77
2023/05/26 03:59:18;;;;;;;21.67;5.33;;;5.90;99.90;;;;;;5035029;28;20278;-75
2023/05/26 04:01:46;;;;;;;21.17;5.90;;;5.90;99.90;;;;;;5036686;28;20224;-75
2023/05/26 04:04:13;;;;;;;24.70;6.03;;;5.90;99.90;;;;;;5036192;28;20750;-76
2023/05/26 04:06:40;;;;;;;28.43;5.90;;;6.00;99.90;;;;;;5036869;28;20817;-76
2023/05/26 04:09:07;;;;;;;24.67;5.27;;;5.90;99.90;;;;;;5037662;28;20235;-76
2023/05/26 04:11:34;;;;;;;25.70;5.60;;;6.00;99.90;;;;;;5031697;28;20219;-77
2023/05/26 04:14:01;;;;;;;22.83;5.87;;;6.00;99.90;;;;;;5035636;28;20738;-76
2023/05/26 04:16:28;;;;;;;26.53;6.43;;;6.00;99.90;;;;;;5035495;28;20226;-76
2023/05/26 04:18:56;;;;;;;29.63;5.27;;;6.00;99.90;;;;;;5033241;28;20822;-76
2023/05/26 04:21:23;;;;;;;24.37;5.80;;;6.10;99.90;;;;;;5038682;28;20226;-75
2023/05/26 04:23:51;;;;;;;26.83;6.27;;;6.10;99.90;;;;;;5038498;28;20909;-75
2023/05/26 04:26:19;;;;;;;22.50;5.30;;;6.10;99.90;;;;;;5049887;28;20788;-75
2023/05/26 04:29:10;;;;;;;21.13;5.47;;;6.20;99.90;;;;;;5028457;28;20957;-75
2023/05/26 04:31:46;;;;;;;25.07;7.23;;;6.20;99.90;;;;;;5035906;28;20222;-75
2023/05/26 04:34:21;;;;;;;20.93;5.37;;;6.20;99.90;;;;;;5035385;28;20220;-79
2023/05/26 04:37:03;;;;;;;27.40;6.33;;;6.30;99.90;;;;;;5038844;28;20624;-80
2023/05/26 04:39:29;;;;;;;25.43;5.47;;;6.30;99.90;;;;;;5037503;28;20240;-79
2023/05/26 04:41:57;;;;;;;29.33;7.40;;;6.40;99.90;;;;;;5039820;28;20303;-80
2023/05/26 04:44:25;;;;;;;23.07;7.20;;;6.40;99.90;;;;;;5037718;28;20805;-79
2023/05/26 04:46:52;;;;;;;20.83;6.30;;;6.40;99.90;;;;;;5042813;28;20229;-80
2023/05/26 04:49:22;;;;;;;21.97;5.13;;;6.50;99.90;;;;;;5040940;28;20231;-79
2023/05/26 04:51:50;;;;;;;20.50;6.00;;;6.50;99.90;;;;;;5044158;28;20223;-77
2023/05/26 04:54:17;;;;;;;25.87;5.90;;;6.60;99.90;;;;;;5032407;28;20347;-80
2023/05/26 04:56:44;;;;;;;26.47;6.17;;;6.60;99.90;;;;;;5037704;28;20245;-79
2023/05/26 04:59:11;;;;;;;21.03;5.93;;;6.60;99.90;;;;;;5034724;28;20312;-80
2023/05/26 05:01:38;;;;;;;19.23;5.10;;;6.70;99.90;;;;;;5036831;28;20257;-79
2023/05/26 05:04:17;;;;;;;22.77;5.57;;;6.80;99.90;;;;;;5034121;28;20234;-80
2023/05/26 05:06:54;;;;;;;24.70;5.43;;;6.80;99.90;;;;;;5035300;28;20220;-79
2023/05/26 05:09:21;;;;;;;24.57;5.53;;;6.90;99.90;;;;;;5037697;28;20242;-80
2023/05/26 05:11:48;;;;;;;20.27;5.37;;;6.90;99.90;;;;;;5035918;28;20870;-78
2023/05/26 05:14:17;;;;;;;20.13;5.43;;;6.90;99.90;;;;;;5036916;28;20227;-80
2023/05/26 05:16:46;;;;;;;18.30;5.27;;;7.00;99.90;;;;;;5034388;28;20218;-80
2023/05/26 05:19:13;;;;;;;22.13;5.27;;;7.00;99.90;;;;;;5034755;28;20223;-79
2023/05/26 05:21:52;;;;;;;25.57;5.47;;;7.10;99.90;;;;;;5037235;28;20226;-80
2023/05/26 05:24:19;;;;;;;26.30;5.70;;;7.10;99.90;;;;;;5034457;28;20312;-79
2023/05/26 05:26:46;;;;;;;21.10;5.73;;;7.20;99.90;;;;;;5030855;28;20227;-79
2023/05/26 05:29:16;;;;;;;21.93;6.03;;;7.20;99.90;;;;;;5036959;28;20845;-78
2023/05/26 05:31:44;;;;;;;23.07;5.73;;;7.20;99.90;;;;;;5029354;28;20219;-80
2023/05/26 05:34:12;;;;;;;26.23;6.40;;;7.30;99.90;;;;;;5039221;28;20852;-79
2023/05/26 05:36:39;;;;;;;30.17;6.03;;;7.30;99.90;;;;;;5041117;28;20226;-77
2023/05/26 05:39:07;;;;;;;22.93;5.20;;;7.40;99.90;;;;;;5029731;28;20841;-79
2023/05/26 05:41:35;;;;;;;23.53;6.20;;;7.40;99.90;;;;;;5032431;28;20302;-80
2023/05/26 05:44:03;;;;;;;22.57;5.90;;;7.50;99.90;;;;;;5033689;28;20251;-79
2023/05/26 05:46:30;;;;;;;23.20;4.83;;;7.50;99.90;;;;;;5040249;28;20219;-80
2023/05/26 05:49:17;;;;;;;30.37;5.83;;;7.60;99.90;;;;;;5032285;28;20543;-78
2023/05/26 05:51:46;;;;;;;20.93;5.30;;;7.70;99.90;;;;;;5038980;28;20354;-80
2023/05/26 05:54:15;;;;;;;20.77;5.77;;;7.80;99.90;;;;;;5035031;28;20825;-77
2023/05/26 05:56:42;;;;;;;18.27;4.93;;;7.80;99.90;;;;;;5038068;28;20664;-79
2023/05/26 05:59:11;;;;;;;20.97;5.73;;;7.90;99.90;;;;;;5033390;28;20580;-80
2023/05/26 06:01:38;;;;;;;17.87;4.97;;;8.00;99.90;;;;;;5038215;28;20306;-78
2023/05/26 06:04:05;;;;;;;19.43;5.10;;;8.00;99.90;;;;;;5028487;28;20228;-79
2023/05/26 06:06:32;;;;;;;22.27;5.77;;;8.10;99.90;;;;;;5040045;28;20240;-80
2023/05/26 06:08:59;;;;;;;19.63;6.03;;;8.20;99.90;;;;;;5043431;28;20301;-80
2023/05/26 06:11:28;;;;;;;19.77;5.70;;;8.30;99.90;;;;;;5038545;28;20229;-79
2023/05/26 06:13:57;;;;;;;20.93;4.77;;;8.40;99.90;;;;;;5034547;28;20314;-80
2023/05/26 06:16:23;;;;;;;22.17;5.70;;;8.50;99.90;;;;;;5039261;28;22512;-80
2023/05/26 06:18:50;;;;;;;19.40;5.50;;;8.60;99.90;;;;;;5043102;28;20233;-80
2023/05/26 06:21:17;;;;;;;19.17;4.77;;;8.70;99.90;;;;;;5041397;28;20652;-79
2023/05/26 06:23:48;;;;;;;17.63;5.27;;;8.80;99.90;;;;;;5042846;28;20295;-80
2023/05/26 06:26:15;;;;;;;22.57;5.73;;;8.90;99.90;;;;;;5037516;28;20686;-79
2023/05/26 06:28:43;;;;;;;17.00;4.40;;;8.90;99.90;;;;;;5032072;28;20236;-80
2023/05/26 06:31:10;;;;;;;22.20;4.60;;;9.00;99.90;;;;;;5039941;28;20315;-80
2023/05/26 06:33:42;;;;;;;15.87;4.10;;;9.10;99.90;;;;;;5040060;28;20976;-80
2023/05/26 06:36:10;;;;;;;15.07;4.57;;;9.20;99.90;;;;;;5046401;28;20224;-80
2023/05/26 06:38:37;;;;;;;19.70;4.40;;;9.40;99.90;;;;;;5039623;28;20238;-79
2023/05/26 06:41:07;;;;;;;14.80;3.83;;;9.50;99.90;;;;;;5032282;28;20915;-79
2023/05/26 06:43:36;;;;;;;17.00;4.60;;;9.50;99.90;;;;;;5035888;28;20233;-80
2023/05/26 06:46:06;;;;;;;17.20;4.07;;;9.70;99.90;;;;;;5040923;28;20222;-80
2023/05/26 06:48:35;;;;;;;20.03;5.30;;;9.80;99.90;;;;;;5033149;28;20224;-79
2023/05/26 06:51:09;;;;;;;17.80;4.70;;;9.90;99.90;;;;;;5041998;28;20288;-80
2023/05/26 06:53:37;;;;;;;17.10;4.57;;;10.00;99.90;;;;;;5038442;28;20248;-80
2023/05/26 06:56:03;;;;;;;18.47;3.93;;;10.20;99.90;;;;;;5032777;28;20323;-80
2023/05/26 06:58:30;;;;;;;22.03;4.47;;;10.30;99.90;;;;;;5045837;28;20223;-79
2023/05/26 07:00:58;;;;;;;20.10;4.83;;;10.50;99.90;;;;;;5037961;28;20677;-79
2023/05/26 07:03:28;;;;;;;17.33;5.10;;;10.70;99.90;;;;;;5036938;28;20305;-78
2023/05/26 07:05:55;;;;;;;18.20;4.80;;;11.00;99.90;;;;;;5039254;28;20704;-80
2023/05/26 07:08:22;;;;;;;17.30;4.23;;;11.20;99.90;;;;;;5037810;28;20327;-81
2023/05/26 07:10:50;;;;;;;14.00;4.03;;;11.50;99.90;;;;;;5040869;28;20308;-81
2023/05/26 07:13:19;;;;;;;14.07;4.13;;;11.90;99.90;;;;;;5043458;28;20639;-80
2023/05/26 07:15:45;;;;;;;17.83;4.43;;;12.30;99.90;;;;;;5041425;28;20233;-80
2023/05/26 07:18:14;;;;;;;13.87;4.03;;;12.80;99.80;;;;;;5045365;28;20961;-80
2023/05/26 07:20:42;;;;;;;16.97;4.40;;;13.20;98.60;;;;;;5043045;28;20233;-81
2023/05/26 07:23:11;;;;;;;11.50;4.03;;;13.60;98.00;;;;;;5046806;28;20233;-80
2023/05/26 07:25:38;;;;;;;11.83;3.50;;;14.00;96.70;;;;;;5033853;28;20240;-81
2023/05/26 07:28:05;;;;;;;15.73;4.53;;;14.30;96.70;;;;;;5037744;28;20219;-78
2023/05/26 07:30:31;;;;;;;13.57;3.60;;;14.70;96.20;;;;;;5051385;22;20623;-81
2023/05/26 07:33:07;;;;;;;11.20;3.63;;;15.00;95.90;;;;;;5023919;28;20290;-80
2023/05/26 07:35:35;;;;;;;12.07;4.03;;;15.40;94.50;;;;;;5037574;28;20227;-80
2023/05/26 07:38:03;;;;;;;11.27;3.80;;;15.70;94.50;;;;;;5025719;28;20245;-80
2023/05/26 07:40:34;;;;;;;17.27;4.17;;;16.00;92.80;;;;;;5042588;28;20228;-81
2023/05/26 07:43:01;;;;;;;13.30;4.33;;;16.20;92.70;;;;;;5005064;28;20224;-80
2023/05/26 07:45:27;;;;;;;12.33;4.10;;;16.20;92.20;;;;;;5025853;28;20299;-82
2023/05/26 07:47:54;;;;;;;13.57;3.77;;;16.40;92.30;;;;;;5010520;28;20239;-82
2023/05/26 07:50:21;;;;;;;11.87;3.60;;;16.50;92.00;;;;;;5032057;28;20220;-81
2023/05/26 07:52:48;;;;;;;12.70;3.90;;;16.70;92.30;;;;;;5022852;28;20232;-79
2023/05/26 07:55:16;;;;;;;13.20;4.20;;;16.90;91.80;;;;;;5023724;28;20223;-80
2023/05/26 07:57:42;;;;;;;12.77;3.50;;;17.20;90.50;;;;;;5018983;28;20307;-81
2023/05/26 08:00:10;;;;;;;12.30;3.90;;;17.50;91.00;;;;;;5022427;28;20311;-80
2023/05/26 08:02:40;;;;;;;13.27;4.30;;;17.70;90.70;;;;;;5022928;28;20229;-80
2023/05/26 08:05:08;;;;;;;14.70;3.50;;;18.00;90.30;;;;;;5025186;28;20227;-81
2023/05/26 08:07:34;;;;;;;13.30;3.88;;;18.30;89.30;;;;;;5007865;28;20247;-81
2023/05/26 08:10:01;;;;;;;12.00;3.88;;;18.60;89.40;;;;;;5026586;28;20649;-80
2023/05/26 08:12:29;;;;;;;12.32;3.70;;;18.90;87.90;;;;;;5021132;28;20252;-80
2023/05/26 08:14:56;;;;;;;11.45;3.65;;;19.10;85.00;;;;;;5005834;28;20224;-80
2023/05/26 08:17:23;;;;;;;9.32;3.63;;;19.20;83.00;;;;;;5023577;28;20232;-81
2023/05/26 08:19:50;;;;;;;11.98;4.32;;;19.30;80.80;;;;;;5021610;28;20221;-81
2023/05/26 08:22:17;;;;;;;10.35;3.85;;;19.20;79.20;;;;;;5022879;28;20300;-80
2023/05/26 08:24:43;;;;;;;10.45;3.70;;;19.20;80.40;;;;;;5008792;28;20232;-79
2023/05/26 08:27:10;;;;;;;9.98;3.63;;;19.20;78.70;;;;;;5024148;28;20235;-81
2023/05/26 08:29:38;;;;;;;12.35;4.03;;;19.20;78.90;;;;;;5006574;28;20232;-82
2023/05/26 08:32:05;;;;;;;11.65;3.40;;;19.20;78.40;;;;;;5020586;28;20707;-79
2023/05/26 08:34:32;;;;;;;11.63;3.97;;;19.20;78.60;;;;;;5002800;28;20233;-81
2023/05/26 08:36:59;;;;;;;8.93;3.55;;;19.30;77.70;;;;;;5023837;28;20220;-80
2023/05/26 08:39:25;;;;;;;12.77;4.10;;;19.50;78.00;;;;;;5005490;28;20229;-80
2023/05/26 08:41:56;;;;;;;13.05;3.40;;;19.70;78.60;;;;;;5023463;28;20227;-80
2023/05/26 08:44:23;;;;;;;10.38;3.78;;;19.90;76.70;;;;;;5022506;28;20235;-80
2023/05/26 08:46:55;;;;;;;9.88;3.50;;;20.10;76.70;;;;;;5005640;28;20215;-80
2023/05/26 08:49:23;;;;;;;11.40;4.13;;;20.30;75.10;;;;;;5006065;28;20222;-80
2023/05/26 08:51:56;;;;;;;11.68;4.10;;;20.50;74.00;;;;;;5019989;28;20232;-81
2023/05/26 08:54:23;;;;;;;10.75;3.95;;;20.70;73.30;;;;;;5022163;28;20224;-80
2023/05/26 08:56:50;;;;;;;14.15;3.80;;;20.80;73.10;;;;;;5023008;28;20227;-80
2023/05/26 08:59:19;;;;;;;9.48;3.70;;;20.90;72.90;;;;;;5023672;28;20223;-80
2023/05/26 09:01:45;;;;;;;12.93;4.25;;;21.00;71.00;;;;;;5009603;28;20706;-80
2023/05/26 09:04:14;;;;;;;8.82;4.00;;;21.10;71.80;;;;;;5019273;28;20224;-80
2023/05/26 09:06:43;;;;;;;11.40;3.92;;;21.10;70.20;;;;;;5024969;28;20239;-80
2023/05/26 09:09:11;;;;;;;12.15;4.05;;;21.00;69.70;;;;;;5022303;28;20216;-80
2023/05/26 09:11:41;;;;;;;14.10;3.70;;;21.00;70.30;;;;;;5023576;28;20224;-81
2023/05/26 09:14:08;;;;;;;12.93;4.03;;;21.00;69.70;;;;;;5009262;28;20229;-80
2023/05/26 09:16:35;;;;;;;11.68;4.45;;;21.10;68.80;;;;;;5028973;28;20318;-80
2023/05/26 09:19:03;;;;;;;10.30;3.80;;;21.20;68.10;;;;;;5009056;28;20217;-83
2023/05/26 09:21:31;;;;;;;12.73;4.25;;;21.20;67.90;;;;;;5024331;28;20244;-80
2023/05/26 09:23:59;;;;;;;11.40;3.95;;;21.30;67.90;;;;;;5023654;28;20232;-83
2023/05/26 09:26:31;;;;;;;10.48;3.78;;;21.30;67.30;;;;;;5021288;28;20223;-83
2023/05/26 09:28:58;;;;;;;12.75;3.72;;;21.40;67.40;;;;;;5022680;28;20221;-81
2023/05/26 09:31:25;;;;;;;11.18;4.20;;;21.40;67.80;;;;;;5023484;28;20396;-80
2023/05/26 09:33:53;;;;;;;8.50;3.58;;;21.60;67.80;;;;;;5025399;28;20221;-80
2023/05/26 09:36:24;;;;;;;11.82;4.38;;;21.70;67.30;;;;;;5007332;28;20235;-81
2023/05/26 09:38:53;;;;;;;8.95;3.70;;;21.90;64.00;;;;;;5023651;28;20217;-80
2023/05/26 09:41:20;;;;;;;10.82;3.90;;;22.00;62.80;;;;;;5024772;28;20295;-80
2023/05/26 09:43:50;;;;;;;12.82;4.18;;;22.00;64.30;;;;;;5021573;28;20244;-80
2023/05/26 09:46:21;;;;;;;12.40;4.63;;;21.90;64.30;;;;;;5003839;28;20254;-82
2023/05/26 09:48:50;;;;;;;12.10;4.10;;;22.00;64.70;;;;;;5020508;28;20635;-82
2023/05/26 09:51:19;;;;;;;12.07;4.10;;;22.00;64.10;;;;;;5010763;28;20714;-80
2023/05/26 09:53:45;;;;;;;12.07;4.32;;;22.10;64.20;;;;;;5037084;28;20315;-82
2023/05/26 09:56:17;;;;;;;9.80;3.90;;;22.20;62.80;;;;;;5007150;28;20228;-80
2023/05/26 09:58:46;;;;;;;12.55;4.57;;;22.30;62.60;;;;;;5022644;28;20231;-80
2023/05/26 10:01:13;;;;;;;13.63;4.55;;;22.30;63.30;;;;;;5020678;28;20229;-83
2023/05/26 10:03:40;;;;;;;12.95;3.65;;;22.30;62.80;;;;;;5006521;28;20796;-82
2023/05/26 10:06:07;;;;;;;10.20;3.70;;;22.40;63.20;;;;;;5007921;28;20228;-81
2023/05/26 10:08:39;;;;;;;10.70;3.40;;;22.50;61.80;;;;;;5007009;28;20229;-82
2023/05/26 10:11:07;;;;;;;11.68;3.75;;;22.70;61.20;;;;;;5024988;28;20312;-81
2023/05/26 10:13:36;;;;;;;12.00;3.70;;;22.70;61.20;;;;;;5024319;28;20228;-82
2023/05/26 10:16:03;;;;;;;10.80;4.00;;;22.80;59.90;;;;;;5025250;28;20219;-82
2023/05/26 10:18:30;;;;;;;11.63;3.70;;;22.80;59.40;;;;;;5026808;28;20248;-81
2023/05/26 10:21:03;;;;;;;13.73;4.60;;;22.70;59.50;;;;;;5022690;28;20225;-83
2023/05/26 10:23:37;;;;;;;11.60;3.65;;;22.70;59.90;;;;;;4982390;28;20232;-81
2023/05/26 10:26:08;;;;;;;10.60;3.80;;;22.80;59.50;;;;;;5005488;28;20515;-82
2023/05/26 10:28:44;;;;;;;13.63;3.88;;;22.80;60.00;;;;;;5007595;28;20251;-81
2023/05/26 10:31:11;;;;;;;10.10;4.00;;;23.00;59.10;;;;;;5021996;28;20315;-82
2023/05/26 10:33:40;;;;;;;7.43;3.50;;;23.00;59.80;;;;;;5022232;28;20953;-82
2023/05/26 10:36:08;;;;;;;12.05;4.13;;;23.10;59.30;;;;;;5026474;28;20225;-81
2023/05/26 10:38:37;;;;;;;7.90;3.90;;;23.30;59.00;;;;;;5025430;28;20224;-82
2023/05/26 10:41:10;;;;;;;14.18;4.15;;;23.40;58.70;;;;;;5023939;28;20236;-81
2023/05/26 10:43:39;;;;;;;8.68;4.00;;;23.50;57.60;;;;;;5010934;28;20228;-82
2023/05/26 10:46:06;;;;;;;10.95;3.90;;;23.60;57.50;;;;;;5028638;28;20221;-81
2023/05/26 10:48:38;;;;;;;11.13;4.25;;;23.60;57.40;;;;;;5026231;28;20233;-81
2023/05/26 10:51:07;;;;;;;9.57;3.58;;;23.70;57.70;;;;;;5024739;28;20227;-82
2023/05/26 10:53:35;;;;;;;10.52;3.72;;;23.80;57.90;;;;;;5028475;28;20224;-82
2023/05/26 10:56:03;;;;;;;10.07;4.38;;;23.90;57.10;;;;;;5030907;28;20272;-82
2023/05/26 10:58:35;;;;;;;11.07;4.43;;;24.00;56.90;;;;;;5028469;28;20315;-84
2023/05/26 11:01:04;;;;;;;7.70;4.00;;;24.20;56.30;;;;;;5027871;28;20231;-81
2023/05/26 11:03:33;;;;;;;10.88;4.60;;;24.30;56.80;;;;;;5027369;28;20300;-82
2023/05/26 11:06:00;;;;;;;10.48;3.95;;;24.50;57.10;;;;;;5035526;28;20851;-81
2023/05/26 11:08:27;;;;;;;12.30;4.40;;;24.60;56.50;;;;;;5031100;28;20229;-83
2023/05/26 11:11:00;;;;;;;12.05;4.38;;;24.80;56.00;;;;;;5028062;28;20898;-81
2023/05/26 11:13:44;;;;;;;7.85;3.65;;;24.70;54.90;;;;;;5030450;28;20908;-82
2023/05/26 11:16:24;;;;;;;11.05;3.90;;;24.60;54.70;;;;;;5018797;28;20655;-82
2023/05/26 11:18:52;;;;;;;11.38;4.10;;;24.40;54.40;;;;;;5031562;28;20224;-82
2023/05/26 11:21:24;;;;;;;10.25;4.45;;;24.10;54.80;;;;;;5015726;28;20230;-81
2023/05/26 11:23:53;;;;;;;8.68;4.85;;;23.90;54.30;;;;;;5025908;28;20275;-81
2023/05/26 11:26:21;;;;;;;11.50;4.53;;;23.80;54.90;;;;;;5035210;28;20237;-83
2023/05/26 11:28:49;;;;;;;14.30;4.90;;;23.50;55.00;;;;;;5015080;28;20905;-81
2023/05/26 11:31:17;;;;;;;9.73;3.92;;;23.40;55.60;;;;;;5031518;28;20231;-83
2023/05/26 11:33:46;;;;;;;10.32;4.40;;;23.40;56.00;;;;;;5010112;28;20239;-84
2023/05/26 11:36:15;;;;;;;9.00;4.40;;;23.40;55.80;;;;;;5027457;28;20230;-81
2023/05/26 11:38:43;;;;;;;10.50;5.25;;;23.40;55.40;;;;;;5012167;28;20213;-82
2023/05/26 11:41:11;;;;;;;12.30;4.90;;;23.20;55.10;;;;;;5028655;28;20729;-82
2023/05/26 11:43:39;;;;;;;11.20;5.18;;;23.20;55.60;;;;;;5009561;28;20236;-81
2023/05/26 11:46:08;;;;;;;11.75;5.03;;;23.10;56.00;;;;;;5026757;28;20221;-83
2023/05/26 11:48:36;;;;;;;11.77;5.40;;;23.00;55.70;;;;;;5029791;28;20229;-82
2023/05/26 11:51:11;;;;;;;10.10;4.65;;;23.00;55.60;;;;;;5022997;28;20232;-82
2023/05/26 11:53:39;;;;;;;14.50;5.85;;;22.90;55.60;;;;;;5015302;28;20224;-82
2023/05/26 11:56:07;;;;;;;11.50;5.50;;;22.80;55.50;;;;;;5013868;28;20213;-83
2023/05/26 11:58:36;;;;;;;9.63;5.07;;;22.70;55.60;;;;;;5033543;28;20228;-82
2023/05/26 12:01:04;;;;;;;12.18;5.95;;;22.70;55.90;;;;;;5028220;28;20220;-82
2023/05/26 12:03:36;;;;;;;11.15;5.03;;;22.70;55.80;;;;;;5030021;28;20233;-82
2023/05/26 12:06:15;;;;;;;10.40;5.38;;;22.70;55.80;;;;;;5026980;28;20801;-82
2023/05/26 12:08:46;;;;;;;10.48;4.85;;;22.60;55.80;;;;;;5032250;28;20228;-81
2023/05/26 12:11:17;;;;;;;14.07;5.22;;;22.60;55.70;;;;;;5015141;28;20217;-82
2023/05/26 12:13:45;;;;;;;9.30;4.90;;;22.60;56.10;;;;;;5032172;28;20296;-82
2023/05/26 12:16:23;;;;;;;12.30;5.75;;;22.50;56.10;;;;;;5016344;28;20591;-81
2023/05/26 12:18:55;;;;;;;10.43;4.88;;;22.50;56.00;;;;;;5016259;28;20279;-82
2023/05/26 12:21:25;;;;;;;10.68;5.20;;;22.50;56.40;;;;;;5029351;28;20605;-82
2023/05/26 12:23:53;;;;;;;10.43;4.85;;;22.50;56.10;;;;;;5013137;28;20674;-81
2023/05/26 12:26:25;;;;;;;14.65;4.82;;;22.40;56.30;;;;;;5028414;28;20221;-82
2023/05/26 12:29:07;;;;;;;10.93;4.82;;;22.40;55.90;;;;;;5030588;28;20295;-82
2023/05/26 12:31:41;;;;;;;11.23;4.38;;;22.40;56.00;;;;;;5025302;28;20237;-82
2023/05/26 12:34:08;;;;;;;12.00;4.82;;;22.50;56.20;;;;;;5029914;28;20223;-83
2023/05/26 12:36:36;;;;;;;10.90;4.53;;;22.50;56.30;;;;;;5017399;28;20589;-82
2023/05/26 12:39:04;;;;;;;7.40;4.15;;;22.50;56.30;;;;;;5027413;28;20692;-83
2023/05/26 12:41:31;;;;;;;11.38;4.82;;;22.50;55.40;;;;;;5024392;28;20663;-83
2023/05/26 12:43:58;;;;;;;11.40;4.35;;;22.40;55.70;;;;;;5021733;28;20717;-82
2023/05/26 12:46:25;;;;;;;12.90;4.88;;;22.20;55.70;;;;;;5024397;28;20228;-82
2023/05/26 12:48:52;;;;;;;15.35;5.40;;;22.10;56.10;;;;;;5025152;28;20229;-82
2023/05/26 12:51:18;;;;;;;11.20;4.10;;;22.00;56.10;;;;;;5030937;28;20220;-83